Station: EBLB - 28/05/2022 13:25Z (il y a 14 minutes)
EBLB 281325Z AUTO 34010KT 9999 FEW042/// BKN061/// BKN070/// 12/03 Q1020 BLU
Vent du 340º - 10 kt
Visibilité > 10 km
Nuages épars à 4200 pieds - Ciel 75% couvert à 6100 pieds - Ciel 75% couvert à 7000 pieds
Température: +12ºC - Point de rosée: +03ºC - QNH: 1020 hPa
Code couleur militaire: BLU (conditions VMC)